sensor_id;sensor_type;location;lat;lon;timestamp;pressure;altitude;pressure_sealevel;temperature;humidity
6347;BME280;3206;42.666;23.600;2022-07-30T00:01:38;95239.88;;;22.50;100.00
6347;BME280;3206;42.666;23.600;2022-07-30T00:04:05;95241.16;;;22.42;100.00
6347;BME280;3206;42.666;23.600;2022-07-30T00:06:31;95238.50;;;22.35;100.00
6347;BME280;3206;42.666;23.600;2022-07-30T00:08:58;95231.59;;;22.27;100.00
6347;BME280;3206;42.666;23.600;2022-07-30T00:11:25;95238.53;;;22.31;100.00
6347;BME280;3206;42.666;23.600;2022-07-30T00:13:53;95225.44;;;22.23;100.00
6347;BME280;3206;42.666;23.600;2022-07-30T00:16:20;95220.00;;;22.23;100.00
6347;BME280;3206;42.666;23.600;2022-07-30T00:18:47;95225.50;;;22.19;100.00
6347;BME280;3206;42.666;23.600;2022-07-30T00:21:14;95230.31;;;22.08;100.00
6347;BME280;3206;42.666;23.600;2022-07-30T00:23:40;95229.06;;;22.13;100.00
6347;BME280;3206;42.666;23.600;2022-07-30T00:26:07;95225.28;;;22.07;100.00
6347;BME280;3206;42.666;23.600;2022-07-30T00:28:34;95221.34;;;22.11;100.00
6347;BME280;3206;42.666;23.600;2022-07-30T00:31:02;95229.06;;;22.13;100.00
6347;BME280;3206;42.666;23.600;2022-07-30T00:33:29;95223.63;;;22.13;100.00
6347;BME280;3206;42.666;23.600;2022-07-30T00:35:55;95215.94;;;22.08;100.00
6347;BME280;3206;42.666;23.600;2022-07-30T00:38:22;95228.72;;;22.11;100.00
6347;BME280;3206;42.666;23.600;2022-07-30T00:40:49;95228.38;;;22.09;100.00
6347;BME280;3206;42.666;23.600;2022-07-30T00:43:16;95222.91;;;22.09;100.00
6347;BME280;3206;42.666;23.600;2022-07-30T00:45:43;95226.03;;;22.07;100.00
6347;BME280;3206;42.666;23.600;2022-07-30T00:48:12;95232.63;;;22.10;100.00
6347;BME280;3206;42.666;23.600;2022-07-30T00:50:39;95227.59;;;22.08;100.00
6347;BME280;3206;42.666;23.600;2022-07-30T00:53:06;95231.91;;;22.06;100.00
6347;BME280;3206;42.666;23.600;2022-07-30T00:55:34;95214.41;;;22.07;100.00
6347;BME280;3206;42.666;23.600;2022-07-30T00:58:01;95211.69;;;22.07;100.00
6347;BME280;3206;42.666;23.600;2022-07-30T01:00:27;95222.56;;;22.07;100.00
6347;BME280;3206;42.666;23.600;2022-07-30T01:02:54;95222.66;;;22.00;100.00
6347;BME280;3206;42.666;23.600;2022-07-30T01:05:22;95219.56;;;21.98;100.00
6347;BME280;3206;42.666;23.600;2022-07-30T01:07:49;95215.78;;;21.92;100.00
6347;BME280;3206;42.666;23.600;2022-07-30T01:10:16;95213.84;;;21.92;100.00
6347;BME280;3206;42.666;23.600;2022-07-30T01:12:43;95209.97;;;21.90;100.00
6347;BME280;3206;42.666;23.600;2022-07-30T01:15:11;95207.25;;;21.90;100.00
6347;BME280;3206;42.666;23.600;2022-07-30T01:17:38;95204.22;;;21.84;100.00
6347;BME280;3206;42.666;23.600;2022-07-30T01:20:08;95203.47;;;21.84;100.00
6347;BME280;3206;42.666;23.600;2022-07-30T01:22:54;95200.34;;;21.82;100.00
6347;BME280;3206;42.666;23.600;2022-07-30T01:25:36;95203.56;;;21.73;100.00
6347;BME280;3206;42.666;23.600;2022-07-30T01:28:06;95206.56;;;21.49;100.00
6347;BME280;3206;42.666;23.600;2022-07-30T01:30:37;95199.84;;;21.60;100.00
6347;BME280;3206;42.666;23.600;2022-07-30T01:33:05;95209.94;;;21.60;100.00
6347;BME280;3206;42.666;23.600;2022-07-30T01:35:34;95204.13;;;21.58;100.00
6347;BME280;3206;42.666;23.600;2022-07-30T01:38:03;95184.44;;;21.47;100.00
6347;BME280;3206;42.666;23.600;2022-07-30T01:40:30;95191.88;;;21.43;100.00
6347;BME280;3206;42.666;23.600;2022-07-30T01:43:00;95215.78;;;21.58;100.00
6347;BME280;3206;42.666;23.600;2022-07-30T01:45:29;95206.84;;;21.58;100.00
6347;BME280;3206;42.666;23.600;2022-07-30T01:47:58;95208.63;;;21.38;100.00
6347;BME280;3206;42.666;23.600;2022-07-30T01:50:27;95215.63;;;21.39;100.00
6347;BME280;3206;42.666;23.600;2022-07-30T01:52:55;95209.50;;;21.28;100.00
6347;BME280;3206;42.666;23.600;2022-07-30T01:55:25;95203.34;;;21.24;100.00
6347;BME280;3206;42.666;23.600;2022-07-30T01:57:54;95203.75;;;21.22;100.00
6347;BME280;3206;42.666;23.600;2022-07-30T02:00:25;95201.16;;;21.08;100.00
6347;BME280;3206;42.666;23.600;2022-07-30T02:02:55;95206.25;;;21.06;100.00
6347;BME280;3206;42.666;23.600;2022-07-30T02:05:22;95206.31;;;21.00;100.00
6347;BME280;3206;42.666;23.600;2022-07-30T02:07:53;95170.88;;;20.73;100.00
6347;BME280;3206;42.666;23.600;2022-07-30T02:10:28;95196.28;;;20.93;100.00
6347;BME280;3206;42.666;23.600;2022-07-30T02:12:58;95199.09;;;20.86;100.00
6347;BME280;3206;42.666;23.600;2022-07-30T02:15:30;95196.84;;;20.74;100.00
6347;BME280;3206;42.666;23.600;2022-07-30T02:18:03;95195.41;;;20.59;100.00
6347;BME280;3206;42.666;23.600;2022-07-30T02:20:32;95153.03;;;20.25;100.00
6347;BME280;3206;42.666;23.600;2022-07-30T02:23:01;95187.84;;;20.37;100.00
6347;BME280;3206;42.666;23.600;2022-07-30T02:25:32;95189.78;;;20.36;100.00
6347;BME280;3206;42.666;23.600;2022-07-30T02:28:02;95187.91;;;20.30;100.00
6347;BME280;3206;42.666;23.600;2022-07-30T02:30:35;95190.97;;;20.32;100.00
6347;BME280;3206;42.666;23.600;2022-07-30T02:33:05;95177.41;;;20.35;100.00
6347;BME280;3206;42.666;23.600;2022-07-30T02:35:35;95178.13;;;20.39;100.00
6347;BME280;3206;42.666;23.600;2022-07-30T02:38:04;95177.72;;;20.41;100.00
6347;BME280;3206;42.666;23.600;2022-07-30T02:40:32;95169.22;;;20.39;100.00
6347;BME280;3206;42.666;23.600;2022-07-30T02:42:59;95178.16;;;20.36;100.00
6347;BME280;3206;42.666;23.600;2022-07-30T02:45:27;95175.41;;;20.43;100.00
6347;BME280;3206;42.666;23.600;2022-07-30T02:47:59;95178.44;;;20.48;100.00
6347;BME280;3206;42.666;23.600;2022-07-30T02:50:27;95177.72;;;20.41;100.00
6347;BME280;3206;42.666;23.600;2022-07-30T02:52:55;95177.78;;;20.34;100.00
6347;BME280;3206;42.666;23.600;2022-07-30T02:55:24;95185.19;;;20.26;100.00
6347;BME280;3206;42.666;23.600;2022-07-30T02:57:53;95189.88;;;20.22;100.00
6347;BME280;3206;42.666;23.600;2022-07-30T03:00:22;95187.22;;;20.15;100.00
6347;BME280;3206;42.666;23.600;2022-07-30T03:02:51;95181.81;;;20.12;100.00
6347;BME280;3206;42.666;23.600;2022-07-30T03:05:19;95184.13;;;20.13;100.00
6347;BME280;3206;42.666;23.600;2022-07-30T03:07:46;95182.59;;;20.12;100.00
6347;BME280;3206;42.666;23.600;2022-07-30T03:10:15;95181.06;;;20.08;100.00
6347;BME280;3206;42.666;23.600;2022-07-30T03:12:44;95174.13;;;20.03;100.00
6347;BME280;3206;42.666;23.600;2022-07-30T03:15:11;95178.75;;;19.99;100.00
6347;BME280;3206;42.666;23.600;2022-07-30T03:17:41;95171.78;;;19.98;100.00
6347;BME280;3206;42.666;23.600;2022-07-30T03:20:11;95171.84;;;19.91;100.00
6347;BME280;3206;42.666;23.600;2022-07-30T03:22:41;95172.31;;;19.79;100.00
6347;BME280;3206;42.666;23.600;2022-07-30T03:25:11;95166.56;;;19.70;100.00
6347;BME280;3206;42.666;23.600;2022-07-30T03:27:41;95169.28;;;19.70;100.00
6347;BME280;3206;42.666;23.600;2022-07-30T03:30:09;95175.13;;;19.55;100.00
6347;BME280;3206;42.666;23.600;2022-07-30T03:32:36;95183.69;;;19.46;100.00
6347;BME280;3206;42.666;23.600;2022-07-30T03:35:05;95182.56;;;19.40;100.00
6347;BME280;3206;42.666;23.600;2022-07-30T03:37:33;95187.56;;;19.42;100.00
6347;BME280;3206;42.666;23.600;2022-07-30T03:40:05;95176.34;;;19.43;100.00
6347;BME280;3206;42.666;23.600;2022-07-30T03:42:34;95180.66;;;19.30;100.00
6347;BME280;3206;42.666;23.600;2022-07-30T03:45:02;95182.56;;;19.40;100.00
6347;BME280;3206;42.666;23.600;2022-07-30T03:47:32;95183.75;;;19.32;100.00
6347;BME280;3206;42.666;23.600;2022-07-30T03:50:00;95184.56;;;19.22;100.00
6347;BME280;3206;42.666;23.600;2022-07-30T03:52:27;95193.06;;;19.28;100.00
6347;BME280;3206;42.666;23.600;2022-07-30T03:54:55;95196.13;;;19.33;100.00
6347;BME280;3206;42.666;23.600;2022-07-30T03:57:24;95202.31;;;19.34;100.00
6347;BME280;3206;42.666;23.600;2022-07-30T03:59:51;95203.06;;;19.45;100.00
6347;BME280;3206;42.666;23.600;2022-07-30T04:02:18;95198.41;;;19.45;100.00
6347;BME280;3206;42.666;23.600;2022-07-30T04:04:45;95193.34;;;19.47;100.00
6347;BME280;3206;42.666;23.600;2022-07-30T04:07:12;95194.16;;;19.48;100.00
6347;BME280;3206;42.666;23.600;2022-07-30T04:09:39;95198.38;;;19.52;100.00
6347;BME280;3206;42.666;23.600;2022-07-30T04:12:05;95196.06;;;19.54;100.00
6347;BME280;3206;42.666;23.600;2022-07-30T04:14:39;95196.03;;;19.58;100.00
6347;BME280;3206;42.666;23.600;2022-07-30T04:17:11;95201.44;;;19.61;100.00
6347;BME280;3206;42.666;23.600;2022-07-30T04:19:42;95194.84;;;19.62;100.00
6347;BME280;3206;42.666;23.600;2022-07-30T04:22:11;95190.16;;;19.66;100.00
6347;BME280;3206;42.666;23.600;2022-07-30T04:24:39;95186.69;;;19.69;100.00
6347;BME280;3206;42.666;23.600;2022-07-30T04:27:06;95192.81;;;19.80;100.00
6347;BME280;3206;42.666;23.600;2022-07-30T04:29:33;95187.38;;;19.84;100.00
6347;BME280;3206;42.666;23.600;2022-07-30T04:32:01;95188.84;;;19.95;100.00
6347;BME280;3206;42.666;23.600;2022-07-30T04:34:28;95196.22;;;20.02;100.00
6347;BME280;3206;42.666;23.600;2022-07-30T04:36:55;95195.78;;;20.10;100.00
6347;BME280;3206;42.666;23.600;2022-07-30T04:39:21;95192.63;;;20.19;100.00
6347;BME280;3206;42.666;23.600;2022-07-30T04:41:48;95195.22;;;20.33;100.00
6347;BME280;3206;42.666;23.600;2022-07-30T04:44:16;95192.81;;;20.45;100.00
6347;BME280;3206;42.666;23.600;2022-07-30T04:46:43;95189.97;;;20.59;100.00
6347;BME280;3206;42.666;23.600;2022-07-30T04:49:13;95193.03;;;20.68;100.00
6347;BME280;3206;42.666;23.600;2022-07-30T04:51:41;95197.56;;;20.85;100.00
6347;BME280;3206;42.666;23.600;2022-07-30T04:54:12;95189.25;;;20.99;100.00
6347;BME280;3206;42.666;23.600;2022-07-30T04:56:40;95188.28;;;21.16;100.00
6347;BME280;3206;42.666;23.600;2022-07-30T04:59:08;95193.63;;;21.26;100.00
6347;BME280;3206;42.666;23.600;2022-07-30T05:01:36;95204.66;;;21.46;100.00
6347;BME280;3206;42.666;23.600;2022-07-30T05:04:05;95195.16;;;21.61;100.00
6347;BME280;3206;42.666;23.600;2022-07-30T05:06:35;95205.06;;;21.78;100.00
6347;BME280;3206;42.666;23.600;2022-07-30T05:09:04;95201.09;;;21.86;100.00
6347;BME280;3206;42.666;23.600;2022-07-30T05:11:31;95197.75;;;22.01;100.00
6347;BME280;3206;42.666;23.600;2022-07-30T05:13:58;95196.78;;;22.15;100.00
6347;BME280;3206;42.666;23.600;2022-07-30T05:16:25;95195.75;;;22.32;100.00
6347;BME280;3206;42.666;23.600;2022-07-30T05:18:52;95199.31;;;22.55;100.00
6347;BME280;3206;42.666;23.600;2022-07-30T05:21:18;95197.56;;;22.68;100.00
6347;BME280;3206;42.666;23.600;2022-07-30T05:23:46;95202.00;;;22.82;100.00
6347;BME280;3206;42.666;23.600;2022-07-30T05:26:13;95192.78;;;22.99;100.00
6347;BME280;3206;42.666;23.600;2022-07-30T05:28:43;95193.81;;;23.04;100.00
6347;BME280;3206;42.666;23.600;2022-07-30T05:31:10;95202.13;;;23.20;100.00
6347;BME280;3206;42.666;23.600;2022-07-30T05:33:37;95199.97;;;23.31;100.00
6347;BME280;3206;42.666;23.600;2022-07-30T05:36:04;95199.44;;;23.40;100.00
6347;BME280;3206;42.666;23.600;2022-07-30T05:38:31;95189.91;;;23.48;100.00
6347;BME280;3206;42.666;23.600;2022-07-30T05:41:01;95195.16;;;23.58;100.00
6347;BME280;3206;42.666;23.600;2022-07-30T05:43:27;95199.84;;;23.58;100.00
6347;BME280;3206;42.666;23.600;2022-07-30T05:45:54;95209.47;;;23.82;100.00
6347;BME280;3206;42.666;23.600;2022-07-30T05:48:21;95197.25;;;24.25;100.00
6347;BME280;3206;42.666;23.600;2022-07-30T05:50:47;95196.13;;;24.58;100.00
6347;BME280;3206;42.666;23.600;2022-07-30T05:53:14;95198.84;;;24.74;100.00
6347;BME280;3206;42.666;23.600;2022-07-30T05:55:41;95196.13;;;24.90;100.00
6347;BME280;3206;42.666;23.600;2022-07-30T05:58:09;95192.63;;;25.06;100.00
6347;BME280;3206;42.666;23.600;2022-07-30T06:00:36;95188.56;;;25.26;100.00
6347;BME280;3206;42.666;23.600;2022-07-30T06:03:03;95185.44;;;25.40;100.00
6347;BME280;3206;42.666;23.600;2022-07-30T06:05:30;95200.63;;;25.57;100.00
6347;BME280;3206;42.666;23.600;2022-07-30T06:07:58;95194.75;;;25.71;100.00
6347;BME280;3206;42.666;23.600;2022-07-30T06:10:25;95194.53;;;25.78;100.00
6347;BME280;3206;42.666;23.600;2022-07-30T06:12:52;95203.06;;;25.96;100.00
6347;BME280;3206;42.666;23.600;2022-07-30T06:15:20;95201.88;;;26.09;100.00
6347;BME280;3206;42.666;23.600;2022-07-30T06:17:47;95193.88;;;26.15;100.00
6347;BME280;3206;42.666;23.600;2022-07-30T06:20:15;95199.59;;;26.33;97.03
6347;BME280;3206;42.666;23.600;2022-07-30T06:22:42;95198.94;;;26.29;97.10
6347;BME280;3206;42.666;23.600;2022-07-30T06:25:09;95194.44;;;26.35;94.72
6347;BME280;3206;42.666;23.600;2022-07-30T06:27:37;95190.53;;;26.48;91.65
6347;BME280;3206;42.666;23.600;2022-07-30T06:30:06;95191.47;;;26.42;92.17
6347;BME280;3206;42.666;23.600;2022-07-30T06:32:35;95192.81;;;26.62;95.99
6347;BME280;3206;42.666;23.600;2022-07-30T06:35:03;95193.13;;;26.77;92.38
6347;BME280;3206;42.666;23.600;2022-07-30T06:37:30;95185.78;;;26.86;92.26
6347;BME280;3206;42.666;23.600;2022-07-30T06:39:56;95190.50;;;26.86;92.26
6347;BME280;3206;42.666;23.600;2022-07-30T06:42:23;95196.50;;;26.93;86.17
6347;BME280;3206;42.666;23.600;2022-07-30T06:44:50;95191.44;;;27.04;90.03
6347;BME280;3206;42.666;23.600;2022-07-30T06:47:19;95184.28;;;27.07;83.93
6347;BME280;3206;42.666;23.600;2022-07-30T06:49:51;95183.41;;;27.09;93.84
6347;BME280;3206;42.666;23.600;2022-07-30T06:52:18;95179.91;;;27.21;86.42
6347;BME280;3206;42.666;23.600;2022-07-30T06:54:45;95185.31;;;27.46;92.26
6347;BME280;3206;42.666;23.600;2022-07-30T06:57:12;95194.91;;;27.51;90.65
6347;BME280;3206;42.666;23.600;2022-07-30T06:59:39;95191.81;;;27.61;87.33
6347;BME280;3206;42.666;23.600;2022-07-30T07:02:06;95162.84;;;27.60;86.52
6347;BME280;3206;42.666;23.600;2022-07-30T07:04:33;95187.22;;;28.01;84.31
6347;BME280;3206;42.666;23.600;2022-07-30T07:07:01;95192.81;;;28.41;80.66
6347;BME280;3206;42.666;23.600;2022-07-30T07:09:28;95181.56;;;28.66;77.68
6347;BME280;3206;42.666;23.600;2022-07-30T07:11:54;95187.44;;;28.37;78.97
6347;BME280;3206;42.666;23.600;2022-07-30T07:14:21;95188.22;;;28.16;80.66
6347;BME280;3206;42.666;23.600;2022-07-30T07:16:48;95185.19;;;28.23;80.97
6347;BME280;3206;42.666;23.600;2022-07-30T07:19:15;95183.41;;;28.29;80.96
6347;BME280;3206;42.666;23.600;2022-07-30T07:21:41;95188.78;;;28.33;79.99
6347;BME280;3206;42.666;23.600;2022-07-30T07:24:09;95190.22;;;28.46;77.54
6347;BME280;3206;42.666;23.600;2022-07-30T07:26:36;95178.78;;;27.96;79.35
6347;BME280;3206;42.666;23.600;2022-07-30T07:29:03;95175.16;;;28.29;81.22
6347;BME280;3206;42.666;23.600;2022-07-30T07:31:30;95159.22;;;28.15;77.84
6347;BME280;3206;42.666;23.600;2022-07-30T07:33:56;95170.22;;;28.15;79.95
6347;BME280;3206;42.666;23.600;2022-07-30T07:36:23;95157.19;;;28.37;80.52
6347;BME280;3206;42.666;23.600;2022-07-30T07:38:50;95158.34;;;28.58;78.33
6347;BME280;3206;42.666;23.600;2022-07-30T07:41:18;95152.47;;;28.77;77.74
6347;BME280;3206;42.666;23.600;2022-07-30T07:43:45;95152.78;;;28.88;76.16
6347;BME280;3206;42.666;23.600;2022-07-30T07:46:12;95147.88;;;28.83;72.84
6347;BME280;3206;42.666;23.600;2022-07-30T07:48:41;95150.19;;;28.85;75.10
6347;BME280;3206;42.666;23.600;2022-07-30T07:51:08;95139.94;;;28.76;73.86
6347;BME280;3206;42.666;23.600;2022-07-30T07:53:35;95156.00;;;28.38;77.08
6347;BME280;3206;42.666;23.600;2022-07-30T07:56:02;95148.59;;;28.57;79.11
6347;BME280;3206;42.666;23.600;2022-07-30T07:58:34;95144.13;;;28.50;76.12
6347;BME280;3206;42.666;23.600;2022-07-30T08:01:00;95145.09;;;28.74;76.49
6347;BME280;3206;42.666;23.600;2022-07-30T08:03:27;95147.31;;;28.97;74.15
6347;BME280;3206;42.666;23.600;2022-07-30T08:05:54;95137.06;;;28.98;78.77
6347;BME280;3206;42.666;23.600;2022-07-30T08:08:21;95140.72;;;28.86;75.71
6347;BME280;3206;42.666;23.600;2022-07-30T08:10:47;95141.84;;;29.15;70.70
6347;BME280;3206;42.666;23.600;2022-07-30T08:13:14;95138.78;;;29.31;68.30
6347;BME280;3206;42.666;23.600;2022-07-30T08:15:43;95136.19;;;29.45;66.68
6347;BME280;3206;42.666;23.600;2022-07-30T08:18:10;95147.94;;;29.73;67.58
6347;BME280;3206;42.666;23.600;2022-07-30T08:20:37;95143.38;;;29.52;67.73
6347;BME280;3206;42.666;23.600;2022-07-30T08:23:05;95133.88;;;29.71;67.12
6347;BME280;3206;42.666;23.600;2022-07-30T08:25:31;95121.03;;;29.77;65.10
6347;BME280;3206;42.666;23.600;2022-07-30T08:27:58;95126.84;;;29.79;67.33
6347;BME280;3206;42.666;23.600;2022-07-30T08:30:27;95126.19;;;29.93;66.13
6347;BME280;3206;42.666;23.600;2022-07-30T08:32:56;95129.38;;;30.18;63.54
6347;BME280;3206;42.666;23.600;2022-07-30T08:35:22;95131.56;;;30.38;63.68
6347;BME280;3206;42.666;23.600;2022-07-30T08:37:49;95123.09;;;30.50;62.12
6347;BME280;3206;42.666;23.600;2022-07-30T08:40:17;95098.91;;;30.45;64.19
6347;BME280;3206;42.666;23.600;2022-07-30T08:42:45;95119.03;;;30.93;62.22
6347;BME280;3206;42.666;23.600;2022-07-30T08:45:12;95116.28;;;30.93;60.36
6347;BME280;3206;42.666;23.600;2022-07-30T08:47:40;95126.09;;;31.17;60.52
6347;BME280;3206;42.666;23.600;2022-07-30T08:50:11;95112.19;;;31.12;60.89
6347;BME280;3206;42.666;23.600;2022-07-30T08:52:39;95106.91;;;31.37;59.42
6347;BME280;3206;42.666;23.600;2022-07-30T08:55:07;95111.09;;;31.85;58.13
6347;BME280;3206;42.666;23.600;2022-07-30T08:57:34;95094.28;;;32.66;54.32
6347;BME280;3206;42.666;23.600;2022-07-30T09:00:03;95100.69;;;33.52;51.29
6347;BME280;3206;42.666;23.600;2022-07-30T09:02:31;95098.47;;;35.11;48.65
6347;BME280;3206;42.666;23.600;2022-07-30T09:04:58;95101.03;;;36.05;46.87
6347;BME280;3206;42.666;23.600;2022-07-30T09:07:26;95090.44;;;36.53;44.20
6347;BME280;3206;42.666;23.600;2022-07-30T09:09:53;95095.44;;;37.04;43.25
6347;BME280;3206;42.666;23.600;2022-07-30T09:12:37;95080.38;;;37.29;41.35
6347;BME280;3206;42.666;23.600;2022-07-30T09:15:07;95082.94;;;37.22;41.00
6347;BME280;3206;42.666;23.600;2022-07-30T09:17:52;95084.13;;;37.48;41.24
6347;BME280;3206;42.666;23.600;2022-07-30T09:20:21;95072.19;;;36.74;40.29
6347;BME280;3206;42.666;23.600;2022-07-30T09:22:52;95070.31;;;38.07;38.78
6347;BME280;3206;42.666;23.600;2022-07-30T09:25:34;95078.59;;;38.77;38.44
6347;BME280;3206;42.666;23.600;2022-07-30T09:28:02;95073.31;;;38.44;38.35
6347;BME280;3206;42.666;23.600;2022-07-30T09:30:42;95078.63;;;39.01;37.04
6347;BME280;3206;42.666;23.600;2022-07-30T09:33:10;95073.91;;;40.25;34.99
6347;BME280;3206;42.666;23.600;2022-07-30T09:35:37;95064.94;;;40.45;34.56
6347;BME280;3206;42.666;23.600;2022-07-30T09:38:06;95071.34;;;40.40;33.64
6347;BME280;3206;42.666;23.600;2022-07-30T09:40:33;95068.03;;;40.99;33.42
6347;BME280;3206;42.666;23.600;2022-07-30T09:43:04;95063.91;;;41.00;32.19
6347;BME280;3206;42.666;23.600;2022-07-30T09:45:31;95058.53;;;39.82;33.58
6347;BME280;3206;42.666;23.600;2022-07-30T09:47:59;95066.19;;;41.01;32.69
6347;BME280;3206;42.666;23.600;2022-07-30T09:50:26;95042.59;;;40.97;32.53
6347;BME280;3206;42.666;23.600;2022-07-30T09:52:53;95029.91;;;41.55;31.33
6347;BME280;3206;42.666;23.600;2022-07-30T09:55:32;95054.28;;;42.27;31.17
6347;BME280;3206;42.666;23.600;2022-07-30T09:58:01;95047.88;;;42.88;30.24
6347;BME280;3206;42.666;23.600;2022-07-30T10:00:31;95046.44;;;44.75;28.84
6347;BME280;3206;42.666;23.600;2022-07-30T10:02:58;95040.25;;;45.61;27.63
6347;BME280;3206;42.666;23.600;2022-07-30T10:05:26;95027.25;;;44.96;27.05
6347;BME280;3206;42.666;23.600;2022-07-30T10:07:54;95017.97;;;42.49;29.47
6347;BME280;3206;42.666;23.600;2022-07-30T10:10:22;95020.22;;;42.51;29.09
6347;BME280;3206;42.666;23.600;2022-07-30T10:12:53;95019.72;;;44.17;28.78
6347;BME280;3206;42.666;23.600;2022-07-30T10:15:23;95017.53;;;42.66;29.61
6347;BME280;3206;42.666;23.600;2022-07-30T10:17:53;95016.50;;;43.98;28.30
6347;BME280;3206;42.666;23.600;2022-07-30T10:20:20;95021.59;;;42.57;29.33
6347;BME280;3206;42.666;23.600;2022-07-30T10:22:47;95011.59;;;42.28;30.08
6347;BME280;3206;42.666;23.600;2022-07-30T10:25:17;95011.84;;;41.17;30.29
6347;BME280;3206;42.666;23.600;2022-07-30T10:27:44;95008.09;;;40.89;30.91
6347;BME280;3206;42.666;23.600;2022-07-30T10:30:14;95003.81;;;42.42;29.94
6347;BME280;3206;42.666;23.600;2022-07-30T10:32:42;95001.47;;;43.02;29.12
6347;BME280;3206;42.666;23.600;2022-07-30T10:35:09;94987.59;;;44.12;29.26
6347;BME280;3206;42.666;23.600;2022-07-30T10:37:44;94989.00;;;43.61;29.02
6347;BME280;3206;42.666;23.600;2022-07-30T10:40:20;94980.81;;;43.85;28.79
6347;BME280;3206;42.666;23.600;2022-07-30T10:43:05;94980.09;;;43.34;28.57
6347;BME280;3206;42.666;23.600;2022-07-30T10:45:45;94978.28;;;42.81;28.51
6347;BME280;3206;42.666;23.600;2022-07-30T10:48:14;94984.81;;;43.47;28.32
6347;BME280;3206;42.666;23.600;2022-07-30T10:50:49;94980.66;;;44.13;27.95
6347;BME280;3206;42.666;23.600;2022-07-30T10:53:32;94970.69;;;42.00;29.09
6347;BME280;3206;42.666;23.600;2022-07-30T10:56:16;94968.47;;;44.11;28.23
6347;BME280;3206;42.666;23.600;2022-07-30T10:58:59;94960.31;;;43.70;27.92
6347;BME280;3206;42.666;23.600;2022-07-30T11:02:07;94948.78;;;44.41;26.89
6347;BME280;3206;42.666;23.600;2022-07-30T11:04:34;94958.38;;;46.18;26.05
6347;BME280;3206;42.666;23.600;2022-07-30T11:07:26;94955.16;;;47.38;24.66
6347;BME280;3206;42.666;23.600;2022-07-30T11:09:55;94948.56;;;47.79;24.20
6347;BME280;3206;42.666;23.600;2022-07-30T11:12:51;94950.13;;;45.01;26.33
6347;BME280;3206;42.666;23.600;2022-07-30T11:15:18;94945.81;;;43.58;27.67
6347;BME280;3206;42.666;23.600;2022-07-30T11:18:04;94941.13;;;43.61;27.62
6347;BME280;3206;42.666;23.600;2022-07-30T11:20:33;94935.94;;;44.54;27.76
6347;BME280;3206;42.666;23.600;2022-07-30T11:23:37;94941.19;;;44.65;27.26
6347;BME280;3206;42.666;23.600;2022-07-30T11:26:04;94939.63;;;43.60;27.24
6347;BME280;3206;42.666;23.600;2022-07-30T11:28:36;94933.34;;;44.42;26.48
6347;BME280;3206;42.666;23.600;2022-07-30T11:33:47;94919.44;;;44.21;26.40
6347;BME280;3206;42.666;23.600;2022-07-30T11:36:13;94913.81;;;44.44;26.16
6347;BME280;3206;42.666;23.600;2022-07-30T11:38:51;94917.66;;;42.93;27.85
6347;BME280;3206;42.666;23.600;2022-07-30T11:41:17;94906.66;;;44.28;27.29
6347;BME280;3206;42.666;23.600;2022-07-30T11:43:44;94904.00;;;43.85;27.46
6347;BME280;3206;42.666;23.600;2022-07-30T11:46:12;94912.44;;;42.13;28.38
6347;BME280;3206;42.666;23.600;2022-07-30T11:48:55;94895.13;;;43.43;27.67
6347;BME280;3206;42.666;23.600;2022-07-30T11:51:22;94913.44;;;44.10;27.22
6347;BME280;3206;42.666;23.600;2022-07-30T11:53:59;94905.53;;;44.53;26.72
6347;BME280;3206;42.666;23.600;2022-07-30T11:56:26;94899.13;;;42.69;27.75
6347;BME280;3206;42.666;23.600;2022-07-30T11:58:59;94890.50;;;43.68;26.90
6347;BME280;3206;42.666;23.600;2022-07-30T12:01:26;94880.97;;;45.32;25.06
6347;BME280;3206;42.666;23.600;2022-07-30T12:03:56;94890.31;;;45.10;25.73
6347;BME280;3206;42.666;23.600;2022-07-30T12:06:23;94872.84;;;44.28;26.36
6347;BME280;3206;42.666;23.600;2022-07-30T12:08:51;94886.00;;;44.33;25.65
6347;BME280;3206;42.666;23.600;2022-07-30T12:11:18;94878.03;;;44.68;25.57
6347;BME280;3206;42.666;23.600;2022-07-30T12:13:54;94875.00;;;44.81;25.42
6347;BME280;3206;42.666;23.600;2022-07-30T12:16:22;94856.94;;;46.29;24.40
6347;BME280;3206;42.666;23.600;2022-07-30T12:18:48;94861.31;;;47.51;23.90
6347;BME280;3206;42.666;23.600;2022-07-30T12:21:17;94869.53;;;47.30;23.78
6347;BME280;3206;42.666;23.600;2022-07-30T12:23:53;94861.78;;;47.47;23.93
6347;BME280;3206;42.666;23.600;2022-07-30T12:26:20;94865.19;;;46.52;24.21
6347;BME280;3206;42.666;23.600;2022-07-30T12:28:48;94856.41;;;47.25;23.19
6347;BME280;3206;42.666;23.600;2022-07-30T12:31:16;94848.38;;;46.37;23.96
6347;BME280;3206;42.666;23.600;2022-07-30T12:33:43;94850.50;;;47.57;23.36
6347;BME280;3206;42.666;23.600;2022-07-30T12:36:24;94842.91;;;46.56;22.75
6347;BME280;3206;42.666;23.600;2022-07-30T12:38:51;94827.09;;;46.86;23.33
6347;BME280;3206;42.666;23.600;2022-07-30T12:41:19;94828.78;;;47.69;22.94
6347;BME280;3206;42.666;23.600;2022-07-30T12:43:48;94831.63;;;46.14;24.42
6347;BME280;3206;42.666;23.600;2022-07-30T12:46:16;94831.78;;;46.16;25.14
6347;BME280;3206;42.666;23.600;2022-07-30T12:48:55;94784.75;;;45.45;24.36
6347;BME280;3206;42.666;23.600;2022-07-30T12:51:24;94813.44;;;45.83;24.03
6347;BME280;3206;42.666;23.600;2022-07-30T12:53:52;94812.19;;;44.81;25.12
6347;BME280;3206;42.666;23.600;2022-07-30T12:56:21;94808.56;;;44.48;25.48
6347;BME280;3206;42.666;23.600;2022-07-30T12:58:48;94811.72;;;45.63;24.39
6347;BME280;3206;42.666;23.600;2022-07-30T13:01:15;94807.41;;;45.62;24.38
6347;BME280;3206;42.666;23.600;2022-07-30T13:03:42;94806.72;;;45.22;24.75
6347;BME280;3206;42.666;23.600;2022-07-30T13:06:17;94800.38;;;44.06;26.07
6347;BME280;3206;42.666;23.600;2022-07-30T13:08:47;94797.69;;;45.97;24.37
6347;BME280;3206;42.666;23.600;2022-07-30T13:11:14;94806.03;;;43.53;25.56
6347;BME280;3206;42.666;23.600;2022-07-30T13:13:41;94784.56;;;43.05;26.72
6347;BME280;3206;42.666;23.600;2022-07-30T13:16:09;94783.28;;;44.19;25.45
6347;BME280;3206;42.666;23.600;2022-07-30T13:18:36;94787.53;;;44.35;25.70